createdAt,value
2018-04-25T00:01:52.740Z,15.57
2018-04-25T00:04:26.295Z,15.52
2018-04-25T00:06:59.817Z,15.41
2018-04-25T00:09:33.376Z,15.34
2018-04-25T00:12:07.060Z,15.49
2018-04-25T00:14:40.858Z,15.18
2018-04-25T00:17:14.403Z,15.27
2018-04-25T00:19:47.908Z,15.28
2018-04-25T00:22:21.427Z,15.33
2018-04-25T00:24:55.214Z,15.13
2018-04-25T00:27:28.752Z,15.26
2018-04-25T00:30:02.368Z,15.25
2018-04-25T00:32:35.935Z,15.17
2018-04-25T00:35:09.490Z,15.28
2018-04-25T00:37:43.139Z,15.19
2018-04-25T00:40:16.939Z,15.29
2018-04-25T00:42:50.739Z,15.23
2018-04-25T00:45:24.552Z,15.02
2018-04-25T00:47:58.272Z,15.25
2018-04-25T00:50:31.876Z,15.14
2018-04-25T00:53:05.408Z,15.05
2018-04-25T00:55:39.000Z,15.08
2018-04-25T00:58:12.586Z,15.19
2018-04-25T01:00:46.737Z,15.17
2018-04-25T01:03:20.747Z,15.01
2018-04-25T01:05:54.520Z,15.25
2018-04-25T01:08:28.089Z,15.25
2018-04-25T01:11:01.677Z,14.99
2018-04-25T01:13:35.189Z,15.11
2018-04-25T01:16:09.064Z,15.26
2018-04-25T01:18:42.757Z,15.14
2018-04-25T01:21:16.549Z,15.04
2018-04-25T01:23:50.341Z,15.18
2018-04-25T01:26:23.959Z,14.92
2018-04-25T01:28:57.553Z,14.95
2018-04-25T01:31:38.103Z,14.93
2018-04-25T01:34:23.196Z,15.04
2018-04-25T01:36:59.954Z,15.11
2018-04-25T01:39:51.027Z,15.09
2018-04-25T01:42:28.484Z,14.84
2018-04-25T01:45:05.573Z,15.06
2018-04-25T01:47:39.401Z,14.96
2018-04-25T01:50:18.800Z,14.93
2018-04-25T01:53:04.348Z,14.76
2018-04-25T01:55:49.984Z,14.82
2018-04-25T01:58:35.572Z,14.90
2018-04-25T02:01:19.889Z,14.93
2018-04-25T02:03:54.570Z,14.90
2018-04-25T02:06:28.323Z,14.73
2018-04-25T02:09:02.133Z,14.60
2018-04-25T02:11:35.696Z,14.63
2018-04-25T02:14:09.551Z,14.72
2018-04-25T02:16:43.137Z,14.51
2018-04-25T02:19:17.205Z,14.54
2018-04-25T02:21:51.109Z,14.74
2018-04-25T02:24:24.855Z,14.73
2018-04-25T02:26:58.473Z,14.77
2018-04-25T02:29:32.161Z,14.52
2018-04-25T02:32:05.751Z,14.48
2018-04-25T02:34:39.349Z,14.52
2018-04-25T02:37:13.041Z,14.42
2018-04-25T02:39:46.771Z,14.44
2018-04-25T02:42:20.382Z,14.51
2018-04-25T02:44:54.144Z,14.59
2018-04-25T02:47:27.966Z,14.30
2018-04-25T02:50:01.711Z,14.57
2018-04-25T02:52:35.769Z,14.57
2018-04-25T02:55:09.645Z,14.56
2018-04-25T02:57:43.306Z,14.45
2018-04-25T03:00:16.907Z,14.51
2018-04-25T03:02:50.633Z,14.35
2018-04-25T03:05:24.317Z,14.56
2018-04-25T03:07:58.405Z,14.39
2018-04-25T03:10:31.994Z,14.36
2018-04-25T03:13:05.739Z,14.39
2018-04-25T03:15:39.484Z,14.43
2018-04-25T03:18:13.054Z,14.34
2018-04-25T03:20:46.769Z,14.41
2018-04-25T03:23:20.508Z,14.30
2018-04-25T03:25:54.107Z,14.35
2018-04-25T03:28:27.757Z,14.41
2018-04-25T03:31:01.486Z,14.29
2018-04-25T03:33:35.121Z,14.29
2018-04-25T03:36:08.741Z,14.39
2018-04-25T03:38:42.474Z,14.46
2018-04-25T03:41:16.216Z,14.44
2018-04-25T03:43:49.989Z,14.22
2018-04-25T03:46:23.717Z,14.39
2018-04-25T03:48:57.439Z,14.15
2018-04-25T03:51:31.110Z,14.22
2018-04-25T03:54:04.964Z,14.28
2018-04-25T03:56:38.713Z,14.44
2018-04-25T03:59:12.593Z,14.57
2018-04-25T04:01:46.187Z,14.42
2018-04-25T04:04:19.880Z,14.54
2018-04-25T04:06:53.497Z,14.47
2018-04-25T04:09:27.328Z,14.60
2018-04-25T04:12:01.077Z,14.51
2018-04-25T04:14:34.796Z,14.61
2018-04-25T04:17:08.577Z,14.61
2018-04-25T04:19:42.264Z,14.57
2018-04-25T04:22:15.835Z,14.73
2018-04-25T04:24:49.566Z,14.47
2018-04-25T04:27:23.230Z,14.40
2018-04-25T04:29:56.908Z,14.57
2018-04-25T04:32:30.503Z,14.78
2018-04-25T04:35:04.557Z,14.71
2018-04-25T04:37:38.238Z,14.54
2018-04-25T04:40:11.973Z,14.58
2018-04-25T04:42:45.812Z,14.51
2018-04-25T04:45:19.579Z,14.63
2018-04-25T04:47:53.471Z,14.49
2018-04-25T04:50:27.324Z,14.75
2018-04-25T04:53:01.025Z,14.83
2018-04-25T04:55:34.737Z,14.53
2018-04-25T04:58:08.500Z,14.49
2018-04-25T05:00:42.277Z,14.53
2018-04-25T05:03:15.929Z,14.47
2018-04-25T05:05:49.785Z,14.54
2018-04-25T05:08:23.593Z,14.66
2018-04-25T05:10:57.127Z,14.58
2018-04-25T05:13:30.827Z,14.49
2018-04-25T05:16:04.951Z,14.55
2018-04-25T05:18:39.068Z,14.46
2018-04-25T05:21:12.745Z,14.42
2018-04-25T05:23:46.333Z,14.46
2018-04-25T05:26:20.069Z,14.54
2018-04-25T05:28:53.822Z,14.62
2018-04-25T05:31:27.522Z,14.45
2018-04-25T05:34:01.247Z,14.31
2018-04-25T05:36:34.848Z,14.56
2018-04-25T05:39:08.534Z,14.55
2018-04-25T05:41:42.263Z,14.35
2018-04-25T05:44:16.011Z,14.72
2018-04-25T05:46:49.781Z,14.04
2018-04-25T05:49:23.389Z,13.96
2018-04-25T05:51:57.268Z,13.95
2018-04-25T05:54:30.979Z,13.71
2018-04-25T05:57:04.601Z,13.75
2018-04-25T05:59:38.308Z,13.61
2018-04-25T06:02:12.036Z,13.52
2018-04-25T06:04:45.809Z,13.33
2018-04-25T06:07:19.380Z,13.25
2018-04-25T06:09:52.981Z,13.25
2018-04-25T06:12:26.832Z,13.08
2018-04-25T06:15:00.404Z,12.99
2018-04-25T06:17:34.005Z,13.00
2018-04-25T06:20:07.751Z,13.06
2018-04-25T06:22:41.623Z,13.36
2018-04-25T06:25:15.285Z,13.22
2018-04-25T06:27:48.869Z,12.87
2018-04-25T06:30:22.589Z,12.74
2018-04-25T06:32:56.344Z,12.77
2018-04-25T06:35:29.920Z,12.87
2018-04-25T06:38:03.719Z,12.85
2018-04-25T06:40:37.459Z,12.88
2018-04-25T06:43:11.290Z,12.96
2018-04-25T06:45:45.099Z,12.66
2018-04-25T06:48:18.658Z,12.84
2018-04-25T06:50:52.408Z,12.87
2018-04-25T06:53:26.371Z,13.12
2018-04-25T06:55:59.993Z,12.80
2018-04-25T06:58:33.895Z,12.86
2018-04-25T07:01:07.531Z,12.87
2018-04-25T07:03:41.241Z,12.83
2018-04-25T07:06:15.005Z,12.94
2018-04-25T07:08:48.781Z,12.94
2018-04-25T07:11:22.630Z,13.12
2018-04-25T07:13:56.284Z,13.05
2018-04-25T07:16:29.975Z,12.94
2018-04-25T07:19:03.766Z,12.87
2018-04-25T07:21:37.488Z,12.42
2018-04-25T07:24:11.121Z,12.35
2018-04-25T07:26:44.837Z,12.62
2018-04-25T07:29:18.648Z,12.68
2018-04-25T07:31:52.376Z,12.65
2018-04-25T07:34:25.936Z,12.45
2018-04-25T07:36:59.660Z,12.55
2018-04-25T07:39:33.626Z,12.37
2018-04-25T07:42:07.243Z,12.54
2018-04-25T07:44:40.919Z,12.69
2018-04-25T07:47:14.662Z,13.28
2018-04-25T07:49:48.321Z,14.03
2018-04-25T07:52:22.167Z,15.98
2018-04-25T07:54:55.752Z,15.34
2018-04-25T07:57:29.321Z,16.16
2018-04-25T08:00:03.046Z,15.13
2018-04-25T08:02:36.681Z,15.05
2018-04-25T08:05:10.260Z,14.22
2018-04-25T08:07:44.021Z,13.87
2018-04-25T08:10:17.594Z,13.33
2018-04-25T08:13:03.192Z,13.48
2018-04-25T08:15:48.849Z,14.03
2018-04-25T08:18:34.416Z,14.40
2018-04-25T08:21:13.787Z,15.85
2018-04-25T08:23:47.351Z,15.34
2018-04-25T08:26:21.112Z,16.45
2018-04-25T08:28:54.696Z,17.96
2018-04-25T08:31:28.462Z,17.33
2018-04-25T08:34:02.075Z,17.81
2018-04-25T08:36:35.723Z,19.00
2018-04-25T08:39:09.333Z,19.53
2018-04-25T08:41:42.881Z,16.66
2018-04-25T08:44:16.548Z,17.56
2018-04-25T08:46:50.353Z,18.90
2018-04-25T08:49:24.048Z,20.29
2018-04-25T08:51:57.812Z,19.65
2018-04-25T08:54:31.420Z,19.15
2018-04-25T08:57:05.243Z,19.57
2018-04-25T08:59:38.988Z,18.95
2018-04-25T09:02:12.736Z,18.58
2018-04-25T09:04:46.366Z,18.03
2018-04-25T09:07:20.092Z,17.38
2018-04-25T09:09:53.656Z,16.83
2018-04-25T09:12:27.256Z,16.81
2018-04-25T09:15:00.980Z,17.18
2018-04-25T09:17:34.632Z,17.03
2018-04-25T09:20:08.479Z,15.95
2018-04-25T09:22:42.192Z,14.82
2018-04-25T09:25:15.833Z,14.52
2018-04-25T09:27:49.694Z,14.77
2018-04-25T09:30:23.481Z,14.93
2018-04-25T09:32:57.214Z,14.89
2018-04-25T09:35:30.992Z,14.77
2018-04-25T09:38:04.656Z,14.57
2018-04-25T09:40:38.435Z,14.23
2018-04-25T09:43:12.131Z,14.25
2018-04-25T09:45:45.724Z,14.53
2018-04-25T09:48:19.409Z,15.16
2018-04-25T09:50:53.155Z,15.29
2018-04-25T09:53:26.912Z,15.84
2018-04-25T09:56:00.512Z,16.47
2018-04-25T09:58:34.124Z,18.67
2018-04-25T10:01:07.729Z,19.04
2018-04-25T10:03:44.445Z,20.64
2018-04-25T10:06:18.195Z,20.09
2018-04-25T10:08:51.844Z,20.72
2018-04-25T10:11:25.667Z,20.01
2018-04-25T10:13:59.347Z,19.44
2018-04-25T10:16:33.071Z,19.82
2018-04-25T10:21:47.014Z,18.27
2018-04-25T10:24:20.881Z,17.62
2018-04-25T10:26:54.405Z,17.39
2018-04-25T10:29:28.039Z,17.17
2018-04-25T10:32:01.762Z,17.64
2018-04-25T10:34:35.539Z,17.86
2018-04-25T10:37:09.266Z,17.51
2018-04-25T10:39:43.035Z,17.99
2018-04-25T10:42:16.731Z,17.84
2018-04-25T10:44:50.315Z,17.06
2018-04-25T10:47:23.932Z,17.22
2018-04-25T10:49:57.638Z,16.07
2018-04-25T10:52:31.239Z,16.49
2018-04-25T10:55:04.967Z,16.16
2018-04-25T10:57:38.700Z,17.40
2018-04-25T11:00:12.449Z,17.69
2018-04-25T11:02:46.196Z,16.63
2018-04-25T11:05:19.768Z,16.90
2018-04-25T11:07:53.434Z,18.25
2018-04-25T11:10:27.564Z,19.05
2018-04-25T11:13:01.235Z,19.94
2018-04-25T11:15:34.957Z,20.33
2018-04-25T11:18:08.612Z,21.27
2018-04-25T11:20:42.219Z,22.09
2018-04-25T11:23:16.083Z,22.53
2018-04-25T11:25:49.778Z,21.67
2018-04-25T11:28:23.602Z,20.70
2018-04-25T11:30:57.161Z,20.76
2018-04-25T11:33:30.954Z,20.21
2018-04-25T11:36:05.013Z,21.04
2018-04-25T11:38:38.782Z,20.45
2018-04-25T11:41:12.377Z,19.80
2018-04-25T11:43:46.013Z,19.68
2018-04-25T11:46:19.751Z,19.58
2018-04-25T11:48:53.337Z,18.98
2018-04-25T11:51:27.091Z,18.57
2018-04-25T11:54:00.668Z,17.97
2018-04-25T11:56:34.344Z,18.77
2018-04-25T11:59:08.117Z,17.90
2018-04-25T12:01:41.664Z,17.34
2018-04-25T12:04:15.205Z,18.00
2018-04-25T12:06:48.923Z,18.68
2018-04-25T12:09:22.816Z,17.51
2018-04-25T12:11:56.416Z,18.15
2018-04-25T12:14:30.000Z,18.18
2018-04-25T12:17:03.848Z,18.70
2018-04-25T12:19:37.463Z,18.14
2018-04-25T12:22:11.212Z,17.99
2018-04-25T12:24:44.933Z,17.44
2018-04-25T12:27:18.569Z,17.64
2018-04-25T12:29:52.237Z,17.18
2018-04-25T12:32:26.008Z,16.83
2018-04-25T12:34:59.740Z,17.10
2018-04-25T12:37:33.506Z,17.38
2018-04-25T12:40:07.212Z,17.40
2018-04-25T12:42:40.940Z,17.64
2018-04-25T12:45:14.648Z,17.84
2018-04-25T12:47:48.346Z,17.19
2018-04-25T12:50:22.332Z,17.22
2018-04-25T12:52:56.074Z,17.28
2018-04-25T12:55:29.711Z,17.78
2018-04-25T12:58:03.286Z,17.90
2018-04-25T13:00:36.958Z,17.99
2018-04-25T13:03:10.716Z,18.11
2018-04-25T13:05:44.319Z,18.50
2018-04-25T13:08:17.827Z,18.59
2018-04-25T13:10:51.633Z,18.65
2018-04-25T13:13:25.449Z,18.03
2018-04-25T13:15:59.139Z,18.27
2018-04-25T13:18:32.759Z,18.52
2018-04-25T13:21:06.434Z,17.39
2018-04-25T13:23:39.980Z,16.20
2018-04-25T13:26:13.498Z,16.35
2018-04-25T13:28:47.223Z,17.17
2018-04-25T13:31:20.738Z,17.38
2018-04-25T13:33:54.456Z,18.11
2018-04-25T13:36:28.020Z,17.35
2018-04-25T13:39:01.601Z,17.12
2018-04-25T13:41:35.170Z,16.71
2018-04-25T13:44:08.738Z,16.48
2018-04-25T13:46:42.278Z,16.48
2018-04-25T13:49:15.841Z,16.58
2018-04-25T13:51:49.572Z,16.78
2018-04-25T13:54:23.103Z,16.99
2018-04-25T13:56:56.768Z,16.93
2018-04-25T13:59:30.409Z,16.96
2018-04-25T14:02:03.964Z,17.13
2018-04-25T14:04:37.539Z,17.05
2018-04-25T14:07:11.090Z,16.99
2018-04-25T14:09:44.763Z,16.98
2018-04-25T14:12:18.352Z,16.87
2018-04-25T14:14:52.008Z,16.40
2018-04-25T14:17:25.547Z,16.16
2018-04-25T14:19:59.175Z,16.12
2018-04-25T14:22:32.801Z,16.14
2018-04-25T14:25:06.581Z,16.47
2018-04-25T14:27:40.325Z,17.02
2018-04-25T14:30:14.064Z,17.09
2018-04-25T14:32:47.694Z,16.76
2018-04-25T14:35:21.407Z,16.17
2018-04-25T14:37:55.371Z,16.53
2018-04-25T14:40:29.064Z,16.55
2018-04-25T14:43:02.612Z,16.18
2018-04-25T14:45:36.214Z,16.06
2018-04-25T14:48:09.845Z,16.01
2018-04-25T14:50:43.604Z,15.72
2018-04-25T14:53:17.183Z,15.85
2018-04-25T14:55:50.973Z,15.56
2018-04-25T14:58:24.724Z,15.25
2018-04-25T15:00:58.271Z,15.13
2018-04-25T15:03:32.616Z,14.69
2018-04-25T15:06:06.335Z,14.87
2018-04-25T15:08:39.919Z,14.80
2018-04-25T15:11:13.640Z,14.83
2018-04-25T15:13:47.217Z,14.81
2018-04-25T15:16:20.718Z,15.17
2018-04-25T15:18:54.271Z,15.52
2018-04-25T15:21:27.822Z,16.11
2018-04-25T15:24:01.392Z,15.97
2018-04-25T15:26:34.975Z,16.10
2018-04-25T15:29:08.515Z,16.08
2018-04-25T15:31:42.252Z,16.29
2018-04-25T15:34:15.880Z,16.77
2018-04-25T15:36:49.653Z,18.06
2018-04-25T15:39:23.451Z,18.33
2018-04-25T15:41:57.258Z,17.07
2018-04-25T15:44:30.957Z,17.33
2018-04-25T15:47:04.490Z,17.65
2018-04-25T15:49:38.131Z,16.81
2018-04-25T15:52:11.789Z,16.94
2018-04-25T15:54:45.352Z,16.26
2018-04-25T15:57:18.943Z,15.79
2018-04-25T15:59:52.508Z,15.89
2018-04-25T16:02:26.112Z,15.87
2018-04-25T16:04:59.871Z,15.72
2018-04-25T16:07:33.452Z,15.60
2018-04-25T16:10:06.978Z,15.74
2018-04-25T16:12:40.548Z,15.73
2018-04-25T16:15:14.242Z,15.57
2018-04-25T16:17:47.965Z,15.82
2018-04-25T16:20:21.748Z,15.47
2018-04-25T16:22:55.513Z,15.37
2018-04-25T16:25:29.212Z,15.09
2018-04-25T16:28:02.948Z,15.09
2018-04-25T16:30:36.579Z,15.53
2018-04-25T16:33:10.148Z,15.19
2018-04-25T16:35:43.776Z,14.95
2018-04-25T16:38:17.438Z,15.19
2018-04-25T16:40:51.232Z,15.59
2018-04-25T16:43:24.850Z,15.34
2018-04-25T16:45:58.624Z,15.62
2018-04-25T16:48:32.192Z,15.14
2018-04-25T16:51:05.798Z,14.82
2018-04-25T16:53:39.356Z,14.40
2018-04-25T16:56:13.109Z,14.03
2018-04-25T16:58:46.818Z,14.15
2018-04-25T17:01:20.597Z,13.86
2018-04-25T17:03:54.432Z,13.78
2018-04-25T17:06:28.271Z,13.73
2018-04-25T17:09:01.984Z,13.70
2018-04-25T17:11:35.788Z,13.80
2018-04-25T17:14:09.513Z,13.74
2018-04-25T17:16:43.099Z,13.87
2018-04-25T17:19:16.809Z,13.53
2018-04-25T17:21:50.435Z,13.51
2018-04-25T17:24:24.035Z,13.62
2018-04-25T17:26:57.749Z,13.69
2018-04-25T17:29:31.714Z,13.40
2018-04-25T17:32:05.418Z,13.54
2018-04-25T17:34:39.013Z,13.36
2018-04-25T17:37:12.636Z,13.57
2018-04-25T17:39:46.321Z,13.41
2018-04-25T17:42:20.079Z,13.31
2018-04-25T17:44:53.664Z,13.31
2018-04-25T17:47:27.342Z,13.14
2018-04-25T17:50:01.079Z,13.07
2018-04-25T17:52:34.740Z,13.03
2018-04-25T17:55:08.510Z,13.03
2018-04-25T17:57:42.316Z,13.07
2018-04-25T18:00:16.057Z,13.15
2018-04-25T18:02:49.833Z,13.15
2018-04-25T18:05:23.622Z,13.02
2018-04-25T18:07:57.365Z,12.90
2018-04-25T18:10:31.047Z,12.92
2018-04-25T18:13:04.816Z,12.79
2018-04-25T18:15:38.545Z,12.60
2018-04-25T18:18:12.077Z,12.69
2018-04-25T18:20:45.781Z,12.43
2018-04-25T18:23:19.607Z,12.31
2018-04-25T18:25:53.349Z,12.29
2018-04-25T18:28:27.075Z,12.19
2018-04-25T18:31:00.825Z,12.16
2018-04-25T18:33:34.563Z,12.24
2018-04-25T18:36:08.185Z,12.21
2018-04-25T18:38:41.836Z,12.13
2018-04-25T18:41:15.688Z,12.01
2018-04-25T18:43:49.404Z,12.01
2018-04-25T18:46:23.279Z,12.05
2018-04-25T18:48:57.112Z,12.07
2018-04-25T18:51:30.725Z,12.12
2018-04-25T18:54:04.525Z,12.07
2018-04-25T18:56:38.247Z,12.09
2018-04-25T18:59:12.050Z,12.11
2018-04-25T19:01:45.674Z,11.99
2018-04-25T19:04:19.475Z,12.07
2018-04-25T19:06:53.265Z,11.93
2018-04-25T19:09:26.955Z,12.05
2018-04-25T19:12:00.638Z,11.96
2018-04-25T19:14:34.324Z,11.94
2018-04-25T19:17:07.940Z,11.90
2018-04-25T19:19:41.649Z,11.92
2018-04-25T19:22:16.191Z,11.92
2018-04-25T19:24:49.860Z,11.81
2018-04-25T19:27:23.417Z,11.75
2018-04-25T19:29:57.081Z,11.77
2018-04-25T19:32:30.719Z,11.68
2018-04-25T19:35:04.294Z,11.51
2018-04-25T19:37:37.949Z,11.51
2018-04-25T19:40:11.716Z,11.41
2018-04-25T19:42:45.430Z,11.33
2018-04-25T19:45:19.012Z,11.37
2018-04-25T19:47:52.693Z,11.24
2018-04-25T19:50:26.360Z,11.14
2018-04-25T19:53:00.042Z,11.09
2018-04-25T19:55:33.844Z,11.03
2018-04-25T19:58:07.444Z,11.08
2018-04-25T20:00:41.034Z,11.17
2018-04-25T20:03:14.608Z,11.25
2018-04-25T20:05:48.207Z,11.29
2018-04-25T20:08:22.040Z,11.48
2018-04-25T20:10:55.627Z,11.55
2018-04-25T20:13:29.232Z,11.64
2018-04-25T20:16:03.211Z,11.64
2018-04-25T20:18:36.827Z,11.60
2018-04-25T20:21:10.511Z,11.59
2018-04-25T20:23:44.179Z,11.46
2018-04-25T20:26:17.768Z,11.76
2018-04-25T20:28:51.461Z,11.74
2018-04-25T20:31:25.232Z,11.60
2018-04-25T20:33:58.933Z,11.65
2018-04-25T20:36:32.563Z,11.89
2018-04-25T20:39:06.208Z,11.89
2018-04-25T20:41:39.820Z,12.06
2018-04-25T20:44:13.376Z,12.08
2018-04-25T20:46:46.911Z,11.94
2018-04-25T20:49:20.712Z,11.79
2018-04-25T20:51:54.354Z,11.69
2018-04-25T20:54:27.965Z,11.61
2018-04-25T20:57:01.448Z,11.63
2018-04-25T20:59:35.147Z,11.47
2018-04-25T21:02:08.770Z,11.48
2018-04-25T21:04:42.335Z,11.38
2018-04-25T21:07:15.886Z,11.20
2018-04-25T21:09:49.568Z,11.11
2018-04-25T21:12:23.176Z,11.08
2018-04-25T21:14:56.803Z,10.94
2018-04-25T21:17:30.317Z,10.85
2018-04-25T21:20:04.091Z,10.82
2018-04-25T21:22:37.709Z,10.79
2018-04-25T21:25:11.526Z,10.88
2018-04-25T21:27:45.292Z,10.91
2018-04-25T21:30:19.074Z,10.93
2018-04-25T21:32:52.692Z,11.04
2018-04-25T21:35:26.291Z,11.00
2018-04-25T21:37:59.995Z,10.95
2018-04-25T21:40:33.587Z,10.96
2018-04-25T21:43:07.418Z,11.10
2018-04-25T21:45:40.967Z,11.01
2018-04-25T21:48:14.595Z,11.14
2018-04-25T21:50:48.303Z,11.04
2018-04-25T21:53:21.931Z,11.02
2018-04-25T21:58:55.056Z,10.72
2018-04-25T22:01:28.892Z,10.67
2018-04-25T22:04:02.763Z,10.60
2018-04-25T22:06:36.269Z,10.56
2018-04-25T22:09:09.886Z,10.50
2018-04-25T22:11:43.513Z,10.31
2018-04-25T22:14:17.083Z,10.24
2018-04-25T22:16:50.709Z,10.34
2018-04-25T22:19:24.332Z,10.16
2018-04-25T22:21:57.835Z,10.22
2018-04-25T22:24:31.616Z,10.31
2018-04-25T22:27:05.115Z,10.15
2018-04-25T22:29:38.892Z,10.21
2018-04-25T22:32:12.425Z,10.25
2018-04-25T22:34:46.126Z,10.29
2018-04-25T22:37:19.916Z,10.20
2018-04-25T22:39:53.553Z,10.10
2018-04-25T22:42:27.075Z,10.03
2018-04-25T22:45:00.756Z,10.06
2018-04-25T22:47:34.454Z,9.99
2018-04-25T22:50:08.029Z,9.84
2018-04-25T22:52:41.536Z,9.73
2018-04-25T22:55:15.087Z,9.75
2018-04-25T22:57:48.751Z,9.91
2018-04-25T23:00:22.531Z,9.93
2018-04-25T23:02:56.319Z,9.83
2018-04-25T23:05:30.127Z,9.78
2018-04-25T23:08:03.654Z,9.79
2018-04-25T23:10:37.399Z,9.64
2018-04-25T23:13:10.940Z,9.72
2018-04-25T23:15:44.660Z,9.59
2018-04-25T23:18:18.260Z,9.63
2018-04-25T23:20:51.846Z,9.56
2018-04-25T23:23:25.412Z,9.59
2018-04-25T23:25:59.130Z,9.69
2018-04-25T23:28:33.053Z,9.42
2018-04-25T23:31:06.595Z,9.42
2018-04-25T23:33:40.218Z,9.46
2018-04-25T23:36:13.888Z,9.39
2018-04-25T23:38:47.536Z,9.51
2018-04-25T23:41:21.255Z,9.39
2018-04-25T23:43:54.902Z,9.52
2018-04-25T23:46:28.391Z,9.37
2018-04-25T23:49:02.034Z,9.47
2018-04-25T23:51:35.571Z,9.35
2018-04-25T23:54:09.034Z,9.33
2018-04-25T23:56:42.548Z,9.19
2018-04-25T23:59:16.153Z,9.25
